createdAt,value
2018-05-06T00:01:06.476Z,148.20
2018-05-06T00:03:34.748Z,145.48
2018-05-06T00:06:03.012Z,152.62
2018-05-06T00:08:31.316Z,152.98
2018-05-06T00:10:59.624Z,152.87
2018-05-06T00:13:27.874Z,144.90
2018-05-06T00:15:56.191Z,159.32
2018-05-06T00:18:25.228Z,151.02
2018-05-06T00:20:53.484Z,145.65
2018-05-06T00:23:21.754Z,139.85
2018-05-06T00:25:50.032Z,141.27
2018-05-06T00:28:18.388Z,148.57
2018-05-06T00:30:46.701Z,143.02
2018-05-06T00:33:14.983Z,149.12
2018-05-06T00:35:43.267Z,141.05
2018-05-06T00:38:11.546Z,148.45
2018-05-06T00:40:39.791Z,147.95
2018-05-06T00:43:08.081Z,137.20
2018-05-06T00:45:36.359Z,144.30
2018-05-06T00:48:04.670Z,143.73
2018-05-06T00:50:32.930Z,150.75
2018-05-06T00:53:01.181Z,149.80
2018-05-06T00:55:30.228Z,159.95
2018-05-06T00:57:58.713Z,152.00
2018-05-06T01:00:26.990Z,155.20
2018-05-06T01:02:56.069Z,164.40
2018-05-06T01:05:24.340Z,146.20
2018-05-06T01:07:52.669Z,148.20
2018-05-06T01:10:20.997Z,145.32
2018-05-06T01:12:49.294Z,142.82
2018-05-06T01:15:17.625Z,140.93
2018-05-06T01:17:45.893Z,144.95
2018-05-06T01:20:14.933Z,143.43
2018-05-06T01:22:43.240Z,145.30
2018-05-06T01:25:11.466Z,136.40
2018-05-06T01:27:39.739Z,140.35
2018-05-06T01:30:08.029Z,139.50
2018-05-06T01:32:36.324Z,139.55
2018-05-06T01:35:04.609Z,137.43
2018-05-06T01:37:32.869Z,138.48
2018-05-06T01:40:01.157Z,138.48
2018-05-06T01:42:29.395Z,140.68
2018-05-06T01:44:57.743Z,143.98
2018-05-06T01:47:25.984Z,133.20
2018-05-06T01:49:54.300Z,134.35
2018-05-06T01:52:22.545Z,140.55
2018-05-06T01:54:50.867Z,136.98
2018-05-06T01:57:19.875Z,140.40
2018-05-06T01:59:48.140Z,137.12
2018-05-06T02:02:16.413Z,138.32
2018-05-06T02:04:45.473Z,141.43
2018-05-06T02:07:13.785Z,132.43
2018-05-06T02:09:42.054Z,147.68
2018-05-06T02:12:10.335Z,135.73
2018-05-06T02:14:38.603Z,144.48
2018-05-06T02:17:06.874Z,135.80
2018-05-06T02:19:35.171Z,141.93
2018-05-06T02:22:03.420Z,133.55
2018-05-06T02:24:31.715Z,137.57
2018-05-06T02:27:01.135Z,136.18
2018-05-06T02:29:30.166Z,137.32
2018-05-06T02:31:58.453Z,137.07
2018-05-06T02:34:26.831Z,144.85
2018-05-06T02:36:55.127Z,139.00
2018-05-06T02:39:23.394Z,134.35
2018-05-06T02:41:51.659Z,141.98
2018-05-06T02:44:19.964Z,140.80
2018-05-06T02:46:48.224Z,135.43
2018-05-06T02:49:16.475Z,138.75
2018-05-06T02:51:44.741Z,136.88
2018-05-06T02:54:13.011Z,135.52
2018-05-06T02:56:42.028Z,148.13
2018-05-06T02:59:10.290Z,139.65
2018-05-06T03:01:39.366Z,134.25
2018-05-06T03:04:07.605Z,135.20
2018-05-06T03:06:35.880Z,134.55
2018-05-06T03:09:04.152Z,133.65
2018-05-06T03:11:32.430Z,142.32
2018-05-06T03:14:00.726Z,134.45
2018-05-06T03:16:28.979Z,132.00
2018-05-06T03:18:57.249Z,140.37
2018-05-06T03:21:25.520Z,138.65
2018-05-06T03:23:53.805Z,134.55
2018-05-06T03:26:22.088Z,140.85
2018-05-06T03:28:50.363Z,141.82
2018-05-06T03:31:18.682Z,139.85
2018-05-06T03:33:46.982Z,143.55
2018-05-06T03:36:15.255Z,140.65
2018-05-06T03:38:44.284Z,137.00
2018-05-06T03:41:12.569Z,145.98
2018-05-06T03:43:40.819Z,149.12
2018-05-06T03:46:09.871Z,142.70
2018-05-06T03:48:38.129Z,143.75
2018-05-06T03:51:06.406Z,130.87
2018-05-06T03:53:35.017Z,134.15
2018-05-06T03:59:30.345Z,132.55
2018-05-06T04:05:14.302Z,134.35
2018-05-06T04:07:42.571Z,130.10
2018-05-06T04:10:10.843Z,138.32
2018-05-06T04:12:39.157Z,141.32
2018-05-06T04:15:07.432Z,136.00
2018-05-06T04:17:35.717Z,137.82
2018-05-06T04:20:03.999Z,137.73
2018-05-06T04:22:33.062Z,152.75
2018-05-06T04:25:01.314Z,142.02
2018-05-06T04:27:29.591Z,142.95
2018-05-06T04:29:57.877Z,138.23
2018-05-06T04:32:26.148Z,139.15
2018-05-06T04:34:54.404Z,144.27
2018-05-06T04:37:22.662Z,133.50
2018-05-06T04:39:50.900Z,140.73
2018-05-06T04:42:19.157Z,151.87
2018-05-06T04:44:47.439Z,158.48
2018-05-06T04:47:15.699Z,166.10
2018-05-06T04:49:44.797Z,176.80
2018-05-06T04:52:13.110Z,181.63
2018-05-06T04:54:41.369Z,238.32
2018-05-06T04:57:09.864Z,268.30
2018-05-06T04:59:38.162Z,272.45
2018-05-06T05:02:06.429Z,251.52
2018-05-06T05:04:34.671Z,217.87
2018-05-06T05:07:03.699Z,278.17
2018-05-06T05:09:32.035Z,265.48
2018-05-06T05:12:00.284Z,229.73
2018-05-06T05:14:28.531Z,229.87
2018-05-06T05:16:56.842Z,224.07
2018-05-06T05:19:25.102Z,199.10
2018-05-06T05:21:53.400Z,191.43
2018-05-06T05:24:22.568Z,215.55
2018-05-06T05:26:50.935Z,196.10
2018-05-06T05:29:19.948Z,202.98
2018-05-06T05:31:48.200Z,194.30
2018-05-06T05:34:16.506Z,186.98
2018-05-06T05:36:45.374Z,186.77
2018-05-06T05:39:13.639Z,194.48
2018-05-06T05:41:41.884Z,184.57
2018-05-06T05:44:10.961Z,176.43
2018-05-06T05:46:49.648Z,200.55
2018-05-06T05:49:17.914Z,211.62
2018-05-06T05:51:46.184Z,171.18
2018-05-06T05:54:15.258Z,178.55
2018-05-06T05:56:43.649Z,167.93
2018-05-06T05:59:12.754Z,172.68
2018-05-06T06:01:41.861Z,196.73
2018-05-06T06:04:10.148Z,172.57
2018-05-06T06:06:38.433Z,171.48
2018-05-06T06:09:06.713Z,184.68
2018-05-06T06:11:34.969Z,179.68
2018-05-06T06:14:03.222Z,181.77
2018-05-06T06:16:32.288Z,182.35
2018-05-06T06:19:00.564Z,176.07
2018-05-06T06:21:28.899Z,187.88
2018-05-06T06:23:57.174Z,208.70
2018-05-06T06:26:25.466Z,192.15
2018-05-06T06:28:53.772Z,197.50
2018-05-06T06:31:22.033Z,181.85
2018-05-06T06:33:50.357Z,184.65
2018-05-06T06:36:18.617Z,201.27
2018-05-06T06:38:46.903Z,206.57
2018-05-06T06:41:16.217Z,219.75
2018-05-06T06:43:44.823Z,238.62
2018-05-06T06:46:13.094Z,253.98
2018-05-06T06:48:42.249Z,311.50
2018-05-06T06:51:10.512Z,338.58
2018-05-06T06:53:38.819Z,387.33
2018-05-06T06:56:07.069Z,409.08
2018-05-06T06:58:35.363Z,402.73
2018-05-06T07:01:03.779Z,443.08
2018-05-06T07:03:32.079Z,352.25
2018-05-06T07:06:01.143Z,353.55
2018-05-06T07:08:31.371Z,376.62
2018-05-06T07:11:00.445Z,307.90
2018-05-06T07:13:28.742Z,311.55
2018-05-06T07:15:57.034Z,292.20
2018-05-06T07:18:26.062Z,287.27
2018-05-06T07:20:55.672Z,344.67
2018-05-06T07:23:23.948Z,422.60
2018-05-06T07:25:52.202Z,323.52
2018-05-06T07:28:20.507Z,345.20
2018-05-06T07:30:49.563Z,334.48
2018-05-06T07:33:18.720Z,317.67
2018-05-06T07:35:47.008Z,295.65
2018-05-06T07:38:16.113Z,312.00
2018-05-06T07:40:44.381Z,267.62
2018-05-06T07:43:12.681Z,345.45
2018-05-06T07:45:40.969Z,346.02
2018-05-06T07:48:10.161Z,357.45
2018-05-06T07:50:38.455Z,336.30
2018-05-06T07:53:07.697Z,311.75
2018-05-06T07:55:36.733Z,294.67
2018-05-06T07:58:05.776Z,296.20
2018-05-06T08:00:34.052Z,285.15
2018-05-06T08:03:02.393Z,300.58
2018-05-06T08:05:30.723Z,340.30
2018-05-06T08:07:59.788Z,348.55
2018-05-06T08:10:28.120Z,322.00
2018-05-06T08:12:56.391Z,361.60
2018-05-06T08:15:24.676Z,417.65
2018-05-06T08:17:52.965Z,428.33
2018-05-06T08:20:21.969Z,436.98
2018-05-06T08:22:51.003Z,400.60
2018-05-06T08:25:19.492Z,444.40
2018-05-06T08:27:47.920Z,486.67
2018-05-06T08:30:16.162Z,506.42
2018-05-06T08:32:44.436Z,494.88
2018-05-06T08:35:12.815Z,469.08
2018-05-06T08:37:41.218Z,467.75
2018-05-06T08:40:10.008Z,488.33
2018-05-06T08:42:38.307Z,464.00
2018-05-06T08:45:07.147Z,463.92
2018-05-06T08:47:35.419Z,469.90
2018-05-06T08:50:03.789Z,441.62
2018-05-06T08:52:33.016Z,460.05
2018-05-06T08:55:01.348Z,473.13
2018-05-06T08:57:30.357Z,368.92
2018-05-06T08:59:58.673Z,383.38
2018-05-06T09:02:26.967Z,271.50
2018-05-06T09:04:55.364Z,260.25
2018-05-06T09:07:23.693Z,277.30
2018-05-06T09:09:52.704Z,271.95
2018-05-06T09:12:22.965Z,284.65
2018-05-06T09:14:52.468Z,277.52
2018-05-06T09:17:20.739Z,277.55
2018-05-06T09:19:50.184Z,286.35
2018-05-06T09:22:19.032Z,527.25
2018-05-06T09:24:48.315Z,446.85
2018-05-06T09:27:17.458Z,453.85
2018-05-06T09:29:47.585Z,483.50
2018-05-06T09:32:15.893Z,412.42
2018-05-06T09:34:44.156Z,376.33
2018-05-06T09:37:12.456Z,312.98
2018-05-06T09:39:40.778Z,456.25
2018-05-06T09:42:09.264Z,430.27
2018-05-06T09:44:37.550Z,319.98
2018-05-06T09:47:05.856Z,289.60
2018-05-06T09:49:34.145Z,268.23
2018-05-06T09:52:03.383Z,260.40
2018-05-06T09:54:31.673Z,279.87
2018-05-06T09:57:00.787Z,278.83
2018-05-06T09:59:29.053Z,266.10
2018-05-06T10:01:57.398Z,270.33
2018-05-06T10:04:25.699Z,300.42
2018-05-06T10:06:53.963Z,268.73
2018-05-06T10:09:22.279Z,298.48
2018-05-06T10:11:51.339Z,303.42
2018-05-06T10:14:19.645Z,237.00
2018-05-06T10:16:48.719Z,227.23
2018-05-06T10:19:16.987Z,303.23
2018-05-06T10:21:46.072Z,281.48
2018-05-06T10:24:14.340Z,240.70
2018-05-06T10:26:42.622Z,212.88
2018-05-06T10:29:10.906Z,231.40
2018-05-06T10:31:39.225Z,248.13
2018-05-06T10:34:08.289Z,242.90
2018-05-06T10:36:36.682Z,256.70
2018-05-06T10:39:05.801Z,260.38
2018-05-06T10:41:34.064Z,263.27
2018-05-06T10:44:02.586Z,272.02
2018-05-06T10:46:30.766Z,289.63
2018-05-06T10:48:59.965Z,313.30
2018-05-06T10:51:28.168Z,290.77
2018-05-06T10:53:56.458Z,684.00
2018-05-06T10:56:24.722Z,18.30
2018-05-06T10:58:53.022Z,23.87
2018-05-06T11:01:21.342Z,120.07
2018-05-06T11:03:50.409Z,150.50
2018-05-06T11:06:18.686Z,8.97
2018-05-06T11:08:47.685Z,30.30
2018-05-06T11:11:16.814Z,64.93
2018-05-06T11:13:45.163Z,51.13
2018-05-06T11:16:13.420Z,154.83
2018-05-06T11:18:42.066Z,19.63
2018-05-06T11:21:10.306Z,109.67
2018-05-06T11:23:39.406Z,416.80
2018-05-06T11:26:08.450Z,213.93
2018-05-06T11:28:36.773Z,509.73
2018-05-06T11:31:05.089Z,683.37
2018-05-06T11:33:34.296Z,612.07
2018-05-06T11:36:02.583Z,727.47
2018-05-06T11:38:30.951Z,714.60
2018-05-06T11:40:59.282Z,716.23
2018-05-06T11:43:27.552Z,679.40
2018-05-06T11:45:56.645Z,622.30
2018-05-06T11:48:26.463Z,626.50
2018-05-06T11:50:54.802Z,606.30
2018-05-06T11:53:26.089Z,602.83
2018-05-06T11:55:54.461Z,612.17
2018-05-06T11:58:23.582Z,599.37
2018-05-06T12:00:53.534Z,547.43
2018-05-06T12:03:22.143Z,557.37
2018-05-06T12:05:51.348Z,572.10
2018-05-06T12:08:21.228Z,587.60
2018-05-06T12:10:50.447Z,541.53
2018-05-06T12:13:19.606Z,565.47
2018-05-06T12:15:48.680Z,571.83
2018-05-06T12:18:17.053Z,532.43
2018-05-06T12:20:46.243Z,535.27
2018-05-06T12:23:15.350Z,523.63
2018-05-06T12:25:43.625Z,547.83
2018-05-06T12:28:12.727Z,551.60
2018-05-06T12:30:41.885Z,556.93
2018-05-06T12:33:11.128Z,563.93
2018-05-06T12:35:39.531Z,555.17
2018-05-06T12:38:08.585Z,580.00
2018-05-06T12:40:37.476Z,582.07
2018-05-06T12:43:05.767Z,556.37
2018-05-06T12:45:34.038Z,585.33
2018-05-06T12:48:02.494Z,561.93
2018-05-06T12:50:31.725Z,541.87
2018-05-06T12:53:00.020Z,565.80
2018-05-06T12:55:29.459Z,617.63
2018-05-06T12:57:57.844Z,571.07
2018-05-06T13:00:26.141Z,565.63
2018-05-06T13:02:55.259Z,555.13
2018-05-06T13:05:23.558Z,555.97
2018-05-06T13:07:52.614Z,535.77
2018-05-06T13:10:20.913Z,646.40
2018-05-06T13:12:50.127Z,495.60
2018-05-06T13:15:19.786Z,529.33
2018-05-06T13:17:48.083Z,516.10
2018-05-06T13:20:16.472Z,594.80
2018-05-06T13:22:44.778Z,631.03
2018-05-06T13:25:13.390Z,574.10
2018-05-06T13:27:41.651Z,634.60
2018-05-06T13:30:09.938Z,619.17
2018-05-06T13:32:38.392Z,630.13
2018-05-06T13:35:06.883Z,608.37
2018-05-06T13:37:36.215Z,548.95
2018-05-06T13:40:06.275Z,399.40
2018-05-06T13:42:35.368Z,341.75
2018-05-06T13:45:03.759Z,467.17
2018-05-06T13:47:32.017Z,533.45
2018-05-06T13:50:00.398Z,627.67
2018-05-06T13:52:28.617Z,644.50
2018-05-06T13:54:56.893Z,559.20
2018-05-06T13:57:25.937Z,447.33
2018-05-06T13:59:54.238Z,599.37
2018-05-06T14:02:22.508Z,317.83
2018-05-06T14:04:52.384Z,554.43
2018-05-06T14:07:20.688Z,400.53
2018-05-06T14:09:49.229Z,301.90
2018-05-06T14:12:18.258Z,259.47
2018-05-06T14:14:46.543Z,401.45
2018-05-06T14:17:15.046Z,155.60
2018-05-06T14:19:43.354Z,107.20
2018-05-06T14:22:11.850Z,105.03
2018-05-06T14:24:40.948Z,104.85
2018-05-06T14:27:09.225Z,99.60
2018-05-06T14:29:38.065Z,101.18
2018-05-06T14:32:06.359Z,102.20
2018-05-06T14:34:34.677Z,100.15
2018-05-06T14:37:02.958Z,99.10
2018-05-06T14:39:31.428Z,94.68
2018-05-06T14:41:59.668Z,90.57
2018-05-06T14:44:27.972Z,102.57
2018-05-06T14:47:08.989Z,102.25
2018-05-06T14:49:37.322Z,111.28
2018-05-06T14:52:06.383Z,114.65
2018-05-06T14:54:34.688Z,112.85
2018-05-06T14:57:03.149Z,85.85
2018-05-06T14:59:32.042Z,267.73
2018-05-06T15:02:01.374Z,105.12
2018-05-06T15:04:30.784Z,96.75
2018-05-06T15:06:59.834Z,97.65
2018-05-06T15:09:28.158Z,78.82
2018-05-06T15:11:56.440Z,75.28
2018-05-06T15:14:36.432Z,76.82
2018-05-06T15:17:04.805Z,78.27
2018-05-06T15:19:33.214Z,66.13
2018-05-06T15:22:01.467Z,64.43
2018-05-06T15:24:29.751Z,58.63
2018-05-06T15:26:58.504Z,53.77
2018-05-06T15:29:26.764Z,54.30
2018-05-06T15:31:55.854Z,52.80
2018-05-06T15:34:24.222Z,51.63
2018-05-06T15:36:52.603Z,49.60
2018-05-06T15:39:20.843Z,48.53
2018-05-06T15:41:49.130Z,50.10
2018-05-06T15:44:17.484Z,49.47
2018-05-06T15:46:45.802Z,48.73
2018-05-06T15:49:14.404Z,41.80
2018-05-06T15:51:42.706Z,43.30
2018-05-06T15:54:10.981Z,51.43
2018-05-06T15:56:40.036Z,40.00
2018-05-06T15:59:09.102Z,40.83
2018-05-06T16:01:38.161Z,45.60
2018-05-06T16:04:18.428Z,43.93
2018-05-06T16:06:46.725Z,47.00
2018-05-06T16:09:15.739Z,49.73
2018-05-06T16:11:45.068Z,53.50
2018-05-06T16:14:17.674Z,61.23
2018-05-06T16:16:46.120Z,57.20
2018-05-06T16:19:14.533Z,70.40
2018-05-06T16:21:44.113Z,60.63
2018-05-06T16:24:12.435Z,53.13
2018-05-06T16:26:41.589Z,72.50
2018-05-06T16:29:09.758Z,69.80
2018-05-06T16:31:39.509Z,71.70
2018-05-06T16:34:07.785Z,73.83
2018-05-06T16:36:37.361Z,72.13
2018-05-06T16:39:05.840Z,70.57
2018-05-06T16:41:34.123Z,65.43
2018-05-06T16:44:02.992Z,71.97
2018-05-06T16:46:32.261Z,67.33
2018-05-06T16:49:00.628Z,65.27
2018-05-06T16:51:29.721Z,61.20
2018-05-06T16:53:58.171Z,64.93
2018-05-06T16:56:27.581Z,71.97
2018-05-06T16:58:57.823Z,73.23
2018-05-06T17:01:27.756Z,70.97
2018-05-06T17:03:57.316Z,61.80
2018-05-06T17:06:26.963Z,65.82
2018-05-06T17:08:57.128Z,51.23
2018-05-06T17:11:26.209Z,67.20
2018-05-06T17:14:05.126Z,67.53
2018-05-06T17:16:34.166Z,62.97
2018-05-06T17:19:03.224Z,77.10
2018-05-06T17:21:31.607Z,72.95
2018-05-06T17:24:00.971Z,62.27
2018-05-06T17:26:30.094Z,71.87
2018-05-06T17:28:59.599Z,70.70
2018-05-06T17:31:29.883Z,69.73
2018-05-06T17:33:58.200Z,71.43
2018-05-06T17:36:27.242Z,73.50
2018-05-06T17:38:56.145Z,70.53
2018-05-06T17:41:26.288Z,69.77
2018-05-06T17:43:54.722Z,55.50
2018-05-06T17:46:22.999Z,59.40
2018-05-06T17:48:51.367Z,47.30
2018-05-06T17:51:20.439Z,48.80
2018-05-06T17:53:48.980Z,48.83
2018-05-06T17:56:17.209Z,45.80
2018-05-06T17:58:47.083Z,43.90
2018-05-06T18:01:15.697Z,44.13
2018-05-06T18:03:44.015Z,62.30
2018-05-06T18:06:12.317Z,63.40
2018-05-06T18:08:40.636Z,70.73
2018-05-06T18:11:08.946Z,70.27
2018-05-06T18:13:38.014Z,67.80
2018-05-06T18:16:07.235Z,65.00
2018-05-06T18:18:35.523Z,67.20
2018-05-06T18:21:03.813Z,67.73
2018-05-06T18:23:32.181Z,70.47
2018-05-06T18:26:00.461Z,69.40
2018-05-06T18:28:28.822Z,70.40
2018-05-06T18:30:57.161Z,69.40
2018-05-06T18:33:25.587Z,70.07
2018-05-06T18:35:53.921Z,70.10
2018-05-06T18:38:22.988Z,67.93
2018-05-06T18:40:51.522Z,65.43
2018-05-06T18:43:20.980Z,69.47
2018-05-06T18:45:49.318Z,41.50
2018-05-06T18:48:17.663Z,42.22
2018-05-06T18:50:46.911Z,41.78
2018-05-06T18:53:15.958Z,41.92
2018-05-06T18:55:44.764Z,40.20
2018-05-06T18:58:13.080Z,38.13
2018-05-06T19:00:42.143Z,35.83
2018-05-06T19:03:12.277Z,37.97
2018-05-06T19:05:41.049Z,38.92
2018-05-06T19:08:09.564Z,40.30
2018-05-06T19:10:39.683Z,39.88
2018-05-06T19:13:08.752Z,61.55
2018-05-06T19:15:37.747Z,107.35
2018-05-06T19:18:07.221Z,94.60
2018-05-06T19:20:35.637Z,57.75
2018-05-06T19:23:04.598Z,48.33
2018-05-06T19:25:35.509Z,46.85
2018-05-06T19:28:04.150Z,59.35
2018-05-06T19:30:35.278Z,63.00
2018-05-06T19:33:06.632Z,53.10
2018-05-06T19:35:39.654Z,60.90
2018-05-06T19:38:08.865Z,64.25
2018-05-06T19:40:38.652Z,61.25
2018-05-06T19:43:18.167Z,77.18
2018-05-06T19:45:46.552Z,79.55
2018-05-06T19:48:15.365Z,80.82
2018-05-06T19:50:47.714Z,82.72
2018-05-06T19:53:19.242Z,87.85
2018-05-06T19:55:50.951Z,96.97
2018-05-06T19:58:19.953Z,94.20
2018-05-06T20:00:52.396Z,122.13
2018-05-06T20:03:23.245Z,84.25
2018-05-06T20:05:52.523Z,88.10
2018-05-06T20:08:22.720Z,86.15
2018-05-06T20:10:51.589Z,85.90
2018-05-06T20:13:20.262Z,89.15
2018-05-06T20:15:49.862Z,84.30
2018-05-06T20:18:18.540Z,83.37
2018-05-06T20:20:46.859Z,86.75
2018-05-06T20:23:17.108Z,88.82
2018-05-06T20:25:46.393Z,82.75
2018-05-06T20:28:15.908Z,85.57
2018-05-06T20:30:44.342Z,83.57
2018-05-06T20:33:13.305Z,87.20
2018-05-06T20:35:42.226Z,81.65
2018-05-06T20:38:10.534Z,84.78
2018-05-06T20:40:40.306Z,85.62
2018-05-06T20:43:08.582Z,83.40
2018-05-06T20:45:36.921Z,81.07
2018-05-06T20:48:05.186Z,85.18
2018-05-06T20:50:34.003Z,84.35
2018-05-06T20:53:02.306Z,84.07
2018-05-06T20:55:30.618Z,84.47
2018-05-06T20:57:58.963Z,87.95
2018-05-06T21:00:27.219Z,84.13
2018-05-06T21:02:55.581Z,86.03
2018-05-06T21:05:23.864Z,80.53
2018-05-06T21:07:52.158Z,83.53
2018-05-06T21:10:20.535Z,85.97
2018-05-06T21:12:48.737Z,82.12
2018-05-06T21:15:17.000Z,75.53
2018-05-06T21:17:45.342Z,70.97
2018-05-06T21:20:13.666Z,79.80
2018-05-06T21:22:44.011Z,83.22
2018-05-06T21:25:13.045Z,73.80
2018-05-06T21:27:42.160Z,75.03
2018-05-06T21:30:11.300Z,87.50
2018-05-06T21:32:41.121Z,79.47
2018-05-06T21:35:09.413Z,65.97
2018-05-06T21:37:38.593Z,72.12
2018-05-06T21:40:06.876Z,76.70
2018-05-06T21:42:39.318Z,77.37
2018-05-06T21:45:08.848Z,78.75
2018-05-06T21:47:37.141Z,72.70
2018-05-06T21:50:05.414Z,68.70
2018-05-06T21:52:35.253Z,74.45
2018-05-06T21:55:04.101Z,83.97
2018-05-06T21:57:46.055Z,78.35
2018-05-06T22:00:18.156Z,81.03
2018-05-06T22:02:46.537Z,78.03
2018-05-06T22:05:14.816Z,75.75
2018-05-06T22:07:43.139Z,80.43
2018-05-06T22:10:12.177Z,76.53
2018-05-06T22:12:41.734Z,77.20
2018-05-06T22:15:10.019Z,72.80
2018-05-06T22:17:42.631Z,71.15
2018-05-06T22:20:11.023Z,66.12
2018-05-06T22:22:39.462Z,63.47
2018-05-06T22:25:07.671Z,66.18
2018-05-06T22:27:35.943Z,69.85
2018-05-06T22:30:05.876Z,81.50
2018-05-06T22:32:34.961Z,69.95
2018-05-06T22:35:13.293Z,67.82
2018-05-06T22:37:41.687Z,70.95
2018-05-06T22:40:11.608Z,66.55
2018-05-06T22:42:41.012Z,67.32
2018-05-06T22:45:09.242Z,65.93
2018-05-06T22:47:37.529Z,65.72
2018-05-06T22:50:06.449Z,68.82
2018-05-06T22:52:35.769Z,65.62
2018-05-06T22:55:04.002Z,68.12
2018-05-06T22:57:33.787Z,65.50
2018-05-06T23:00:02.043Z,66.43
2018-05-06T23:02:30.065Z,70.25
2018-05-06T23:04:58.356Z,71.40
2018-05-06T23:07:28.186Z,72.25
2018-05-06T23:09:56.446Z,71.90
2018-05-06T23:12:25.153Z,79.05
2018-05-06T23:14:54.186Z,76.25
2018-05-06T23:17:22.529Z,73.50
2018-05-06T23:19:50.981Z,76.87
2018-05-06T23:22:19.459Z,77.78
2018-05-06T23:24:47.777Z,65.68
2018-05-06T23:27:16.822Z,67.12
2018-05-06T23:29:45.064Z,65.07
2018-05-06T23:32:14.075Z,67.35
2018-05-06T23:34:43.300Z,65.87
2018-05-06T23:37:11.608Z,62.33
2018-05-06T23:39:39.910Z,62.20
2018-05-06T23:42:08.978Z,60.40
2018-05-06T23:44:37.225Z,58.85
2018-05-06T23:47:05.513Z,57.55
2018-05-06T23:49:33.776Z,57.33
2018-05-06T23:52:02.028Z,57.42
2018-05-06T23:54:31.060Z,56.17
2018-05-06T23:56:59.324Z,56.33
2018-05-06T23:59:27.635Z,54.40
